Galbraith, Louisiana
Current Conditions -  °F | °C
As of 12:53 PM on Thursday 30 Oct 2014 (Local Time) from KAEX Reporting Station
Clear Clear  
Wind Chill: 71°   Ceiling: Unl
Heat Index: 71°   Visibility: 10mi
Dew Point: 40°   Wind: 8mph
Humidity: 32%   Direction: 80°E
Pressure: 30.12"   Gusts: NA
Location:  31.4254°N, 92.7765°W
Report Text: KAEX 301753Z AUTO 08007KT 10SM CLR 22/04 A3012 RMK AO2 SLP203 T02170044 10222 20050 58014
Loading
Personal Weather Stations






























Interactive Weather Map
Tropical Storm Tracking
New forecast layout! Learn more

10-Day Weather Forecast

Advertisements
Track Severe Weather on mobile